Green Fast — ZDHA9 — position and weather

sailwx.info

Track history (hours):
 
Tides and Currents Weather Stations Pressure Air Temp Water Temp Dewpoint Dewpoint Depression Visibility Wind Speed Wind Dir Waves Ship Positions

Green Fast

Last reported at 2018-May-07 23:35 UTC. Time now 2018-May-21 07:14 UTC.
Position N 09°13' W 079°55'.
Warning: this ship's position is 13 days out of date.

Length 118 m; draft 6.9 m.

Type: Ship (hazmat cat A). MMSI: 236294000.

Date/timePositionNaut miles runAvg speedWind from/ knotsBaromVisibWave heightAir tempDewpointWater temp
2018-May-07 23:35N 09°13' W 079°55'1 8.5
2018-May-07 23:28N 09°14' W 079°55'3 5.8
2018-May-07 23:00N 09°16' W 079°55'0 0.4
2018-May-07 22:30N 09°16' W 079°55'0 0.4
2018-May-07 22:00N 09°17' W 079°55'0 0.7
2018-May-07 21:29N 09°17' W 079°55'2 3.8
2018-May-07 21:00N 09°19' W 079°55'3 6.8
2018-May-07 20:30N 09°22' W 079°55'0 0.1
2018-May-07 20:00N 09°22' W 079°55'0 0.0
2018-May-07 19:30N 09°22' W 079°55'0 0.0
2018-May-07 19:00N 09°22' W 079°55'0 0.1
2018-May-07 18:30N 09°22' W 079°55'0 0.0
2018-May-07 18:00N 09°22' W 079°55'0 0.0
2018-May-07 17:30N 09°22' W 079°55'0 0.0
2018-May-07 17:00N 09°22' W 079°55'0 0.0
2018-May-07 16:30N 09°22' W 079°55'0 0.0
2018-May-07 16:00N 09°22' W 079°55'0 0.2
2018-May-07 15:20N 09°22' W 079°55'1 3.6
2018-May-07 15:00N 09°23' W 079°55'5 9.4
2018-May-07 14:30N 09°28' W 079°55'611.6
2018-May-07 14:00N 09°34' W 079°52'  
2018-May-02 23:42N 25°39' W 079°34'311.2
2018-May-02 23:27N 25°42' W 079°34'511.1
2018-May-02 22:58N 25°47' W 079°35'510.8
2018-May-02 22:30N 25°52' W 079°36'510.5
2018-May-02 22:00N 25°57' W 079°37'510.2
2018-May-02 21:30N 26°02' W 079°37'611.2
2018-May-02 21:00N 26°03' W 079°43'611.3
2018-May-02 20:30N 26°04' W 079°50'611.5
2018-May-02 20:00N 26°04' W 079°56'611.5
2018-May-02 19:30N 26°04' W 080°02'4 8.1
2018-May-02 19:00N 26°05' W 080°07'0 0.2
2018-May-02 18:30N 26°05' W 080°07'0 0.0
2018-May-02 18:00N 26°05' W 080°07'0 0.0
2018-May-02 17:30N 26°05' W 080°07'1 1.6
2018-May-02 16:59N 26°04' W 080°07'0 0.0
2018-May-02 16:29N 26°04' W 080°07'0 0.0
2018-May-02 15:59N 26°04' W 080°07'0 0.0
2018-May-02 15:29N 26°04' W 080°07'0 0.0
2018-May-02 14:59N 26°04' W 080°07'0 0.0
2018-May-02 14:29N 26°04' W 080°07'0 0.0
2018-May-02 13:59N 26°04' W 080°07'0 0.0
2018-May-02 13:29N 26°04' W 080°07'0 0.0
2018-May-02 13:00N 26°04' W 080°07'0 0.0
2018-May-02 12:29N 26°04' W 080°07'0 0.0
2018-May-02 11:59N 26°04' W 080°07'0 0.0
2018-May-02 11:29N 26°04' W 080°07'0 0.0
2018-May-02 10:59N 26°04' W 080°07'0 0.0
2018-May-02 10:29N 26°04' W 080°07'0 0.0
2018-May-02 09:59N 26°04' W 080°07'0 0.0
2018-May-02 09:29N 26°04' W 080°07'0 0.0
2018-May-02 08:59N 26°04' W 080°07'0 0.0
2018-May-02 08:29N 26°04' W 080°07'0 0.0
2018-May-02 07:59N 26°04' W 080°07'0 0.0
2018-May-02 07:29N 26°04' W 080°07'0 0.0
2018-May-02 06:59N 26°04' W 080°07'0 0.0
2018-May-02 06:29N 26°04' W 080°07'0 0.0
2018-May-02 05:59N 26°04' W 080°07'0 0.0
2018-May-02 05:29N 26°04' W 080°07'0 0.0
2018-May-02 05:01N 26°04' W 080°07'2 3.2
2018-May-02 04:31N 26°06' W 080°06'2 3.8
2018-May-02 04:00N 26°07' W 080°05'0 0.0
2018-May-02 03:29N 26°07' W 080°05'0 0.0
2018-May-02 02:56N 26°07' W 080°05'0 0.0
2018-May-02 02:29N 26°07' W 080°05'0 0.0
2018-May-02 01:56N 26°07' W 080°05'0 0.0
2018-May-02 01:29N 26°07' W 080°05'0 0.0
2018-May-02 00:59N 26°07' W 080°05'0 0.0
2018-May-02 00:29N 26°07' W 080°05'0 0.0
2018-May-01 23:59N 26°07' W 080°05'0 0.0
2018-May-01 23:29N 26°07' W 080°05'0 0.0
2018-May-01 22:59N 26°07' W 080°05'0 0.0
2018-May-01 22:29N 26°07' W 080°05'0 0.0
2018-May-01 21:59N 26°07' W 080°05'0 0.0
2018-May-01 21:29N 26°07' W 080°05'0 0.0
2018-May-01 20:59N 26°07' W 080°05'0 0.0
2018-May-01 20:29N 26°07' W 080°05'0 0.0
2018-May-01 19:59N 26°07' W 080°05'0 0.0
2018-May-01 19:29N 26°07' W 080°05'0 0.0
2018-May-01 18:59N 26°07' W 080°05'0 0.0
2018-May-01 18:29N 26°07' W 080°05'0 0.0
2018-May-01 17:59N 26°07' W 080°05'0 0.0
2018-May-01 17:29N 26°07' W 080°05'0 0.0
2018-May-01 16:59N 26°07' W 080°05'0 0.0
2018-May-01 16:29N 26°07' W 080°05'0 0.1
2018-May-01 15:59N 26°07' W 080°05'0 0.0
2018-May-01 15:29N 26°07' W 080°05'0 0.0
2018-May-01 14:59N 26°07' W 080°05'0 0.0
2018-May-01 14:29N 26°07' W 080°05'0 0.0
2018-May-01 13:59N 26°07' W 080°05'0 0.0
2018-May-01 13:29N 26°07' W 080°05'0 0.0
2018-May-01 12:56N 26°07' W 080°05'0 0.0
2018-May-01 12:29N 26°07' W 080°05'0 0.0
2018-May-01 11:59N 26°07' W 080°05'0 0.0
2018-May-01 11:26N 26°07' W 080°05'0 0.0
2018-May-01 10:59N 26°07' W 080°05'0 0.1
2018-May-01 10:29N 26°07' W 080°05'0 0.1
2018-May-01 09:59N 26°07' W 080°05'0 0.0
2018-May-01 09:29N 26°07' W 080°05'0 0.1
2018-May-01 08:59N 26°07' W 080°05'0 0.1
2018-May-01 08:29N 26°07' W 080°05'0 0.0
2018-May-01 07:59N 26°07' W 080°05'0 0.0
2018-May-01 07:29N 26°07' W 080°05'0 0.0
2018-May-01 06:59N 26°07' W 080°05'0 0.0
2018-May-01 06:29N 26°07' W 080°05'0 0.0
2018-May-01 05:59N 26°07' W 080°05'0 0.0
2018-May-01 05:29N 26°07' W 080°05'0 0.0
2018-May-01 04:59N 26°07' W 080°05'0 0.0
2018-May-01 04:29N 26°07' W 080°05'0 0.0
2018-May-01 03:59N 26°07' W 080°05'0 0.0
2018-May-01 03:29N 26°07' W 080°05'0 0.0
2018-May-01 02:59N 26°07' W 080°05'0 0.0
2018-May-01 02:29N 26°07' W 080°05'0 0.0
2018-May-01 01:59N 26°07' W 080°05'0 0.0
2018-May-01 01:29N 26°07' W 080°05'0 0.0
2018-May-01 00:56N 26°07' W 080°05'0 0.0
2018-May-01 00:29N 26°07' W 080°05'0 0.0
2018-Apr-30 23:59N 26°07' W 080°05'0 0.0
2018-Apr-30 23:30N 26°07' W 080°05'0 0.0
2018-Apr-30 23:01N 26°07' W 080°05'0 0.0
2018-Apr-30 22:30N 26°07' W 080°05'0 0.0
2018-Apr-30 22:00N 26°07' W 080°05'0 0.0
2018-Apr-30 21:30N 26°07' W 080°05'0 0.0
2018-Apr-30 21:00N 26°07' W 080°05'0 0.0
2018-Apr-30 20:30N 26°07' W 080°05'0 0.0
2018-Apr-30 20:00N 26°07' W 080°05'0 0.1
2018-Apr-30 19:31N 26°07' W 080°05'0 0.0
2018-Apr-30 19:00N 26°07' W 080°05'0 0.0
2018-Apr-30 18:30N 26°07' W 080°05'0 0.0
2018-Apr-30 18:00N 26°07' W 080°05'0 0.0
2018-Apr-30 17:30N 26°07' W 080°05'0 0.0
2018-Apr-30 17:01N 26°07' W 080°05'0 0.0
2018-Apr-30 16:31N 26°07' W 080°05'0 0.0
2018-Apr-30 16:01N 26°07' W 080°05'0 0.0
2018-Apr-30 15:31N 26°07' W 080°05'0 0.2
2018-Apr-30 15:00N 26°07' W 080°05'2 4.0
2018-Apr-30 14:31N 26°06' W 080°06'2 3.1
2018-Apr-30 13:58N 26°04' W 080°07'0 0.0
2018-Apr-30 13:28N 26°04' W 080°07'0 0.0
2018-Apr-30 12:58N 26°04' W 080°07'0 0.0
2018-Apr-30 12:28N 26°04' W 080°07'0 0.0
2018-Apr-30 11:58N 26°04' W 080°07'0 0.0
2018-Apr-30 11:28N 26°04' W 080°07'0 0.0
2018-Apr-30 10:58N 26°04' W 080°07'0 0.0
2018-Apr-30 10:28N 26°04' W 080°07'0 0.0
2018-Apr-30 09:58N 26°04' W 080°07'0 0.0
2018-Apr-30 09:28N 26°04' W 080°07'0 0.0
2018-Apr-30 08:58N 26°04' W 080°07'0 0.0
2018-Apr-30 08:28N 26°04' W 080°07'0 0.0
2018-Apr-30 07:58N 26°04' W 080°07'0 0.0
2018-Apr-30 07:28N 26°04' W 080°07'0 0.0
2018-Apr-30 06:58N 26°04' W 080°07'1 1.1
2018-Apr-30 06:30N 26°05' W 080°07'3 7.0
2018-Apr-30 06:00N 26°06' W 080°03'510.1
2018-Apr-30 05:30N 26°03' W 079°59'714.2
2018-Apr-30 05:00N 25°59' W 079°52'815.0
2018-Apr-30 04:29N 25°53' W 079°46'1114.2
2018-Apr-30 03:43N 25°43' W 079°41'615.5
2018-Apr-30 03:21N 25°37' W 079°41'  
Track history (hours):
 
Tides and Currents Weather Stations Pressure Air Temp Water Temp Dewpoint Dewpoint Depression Visibility Wind Speed Wind Dir Waves Ship Positions

Green Fast

Last reported at 2018-May-07 23:35 UTC. Time now 2018-May-21 07:14 UTC.
Position N 09°13' W 079°55'.
Warning: this ship's position is 13 days out of date.

Length 118 m; draft 6.9 m.

Type: Ship (hazmat cat A). MMSI: 236294000.

Date/timePositionNaut miles runAvg speedWind from/ knotsBaromVisibWave heightAir tempDewpointWater temp
2018-May-07 23:35N 09°13' W 079°55'1 8.5
2018-May-07 23:28N 09°14' W 079°55'3 5.8
2018-May-07 23:00N 09°16' W 079°55'0 0.4
2018-May-07 22:30N 09°16' W 079°55'0 0.4
2018-May-07 22:00N 09°17' W 079°55'0 0.7
2018-May-07 21:29N 09°17' W 079°55'2 3.8
2018-May-07 21:00N 09°19' W 079°55'3 6.8
2018-May-07 20:30N 09°22' W 079°55'0 0.1
2018-May-07 20:00N 09°22' W 079°55'0 0.0
2018-May-07 19:30N 09°22' W 079°55'0 0.0
2018-May-07 19:00N 09°22' W 079°55'0 0.1
2018-May-07 18:30N 09°22' W 079°55'0 0.0
2018-May-07 18:00N 09°22' W 079°55'0 0.0
2018-May-07 17:30N 09°22' W 079°55'0 0.0
2018-May-07 17:00N 09°22' W 079°55'0 0.0
2018-May-07 16:30N 09°22' W 079°55'0 0.0
2018-May-07 16:00N 09°22' W 079°55'0 0.2
2018-May-07 15:20N 09°22' W 079°55'1 3.6
2018-May-07 15:00N 09°23' W 079°55'5 9.4
2018-May-07 14:30N 09°28' W 079°55'611.6
2018-May-07 14:00N 09°34' W 079°52'  
2018-May-02 23:42N 25°39' W 079°34'311.2
2018-May-02 23:27N 25°42' W 079°34'511.1
2018-May-02 22:58N 25°47' W 079°35'510.8
2018-May-02 22:30N 25°52' W 079°36'510.5
2018-May-02 22:00N 25°57' W 079°37'510.2
2018-May-02 21:30N 26°02' W 079°37'611.2
2018-May-02 21:00N 26°03' W 079°43'611.3
2018-May-02 20:30N 26°04' W 079°50'611.5
2018-May-02 20:00N 26°04' W 079°56'611.5
2018-May-02 19:30N 26°04' W 080°02'4 8.1
2018-May-02 19:00N 26°05' W 080°07'0 0.2
2018-May-02 18:30N 26°05' W 080°07'0 0.0
2018-May-02 18:00N 26°05' W 080°07'0 0.0
2018-May-02 17:30N 26°05' W 080°07'1 1.6
2018-May-02 16:59N 26°04' W 080°07'0 0.0
2018-May-02 16:29N 26°04' W 080°07'0 0.0
2018-May-02 15:59N 26°04' W 080°07'0 0.0
2018-May-02 15:29N 26°04' W 080°07'0 0.0
2018-May-02 14:59N 26°04' W 080°07'0 0.0
2018-May-02 14:29N 26°04' W 080°07'0 0.0
2018-May-02 13:59N 26°04' W 080°07'0 0.0
2018-May-02 13:29N 26°04' W 080°07'0 0.0
2018-May-02 13:00N 26°04' W 080°07'0 0.0
2018-May-02 12:29N 26°04' W 080°07'0 0.0
2018-May-02 11:59N 26°04' W 080°07'0 0.0
2018-May-02 11:29N 26°04' W 080°07'0 0.0
2018-May-02 10:59N 26°04' W 080°07'0 0.0
2018-May-02 10:29N 26°04' W 080°07'0 0.0
2018-May-02 09:59N 26°04' W 080°07'0 0.0
2018-May-02 09:29N 26°04' W 080°07'0 0.0
2018-May-02 08:59N 26°04' W 080°07'0 0.0
2018-May-02 08:29N 26°04' W 080°07'0 0.0
2018-May-02 07:59N 26°04' W 080°07'0 0.0
2018-May-02 07:29N 26°04' W 080°07'0 0.0
2018-May-02 06:59N 26°04' W 080°07'0 0.0
2018-May-02 06:29N 26°04' W 080°07'0 0.0
2018-May-02 05:59N 26°04' W 080°07'0 0.0
2018-May-02 05:29N 26°04' W 080°07'0 0.0
2018-May-02 05:01N 26°04' W 080°07'2 3.2
2018-May-02 04:31N 26°06' W 080°06'2 3.8
2018-May-02 04:00N 26°07' W 080°05'0 0.0
2018-May-02 03:29N 26°07' W 080°05'0 0.0
2018-May-02 02:56N 26°07' W 080°05'0 0.0
2018-May-02 02:29N 26°07' W 080°05'0 0.0
2018-May-02 01:56N 26°07' W 080°05'0 0.0
2018-May-02 01:29N 26°07' W 080°05'0 0.0
2018-May-02 00:59N 26°07' W 080°05'0 0.0
2018-May-02 00:29N 26°07' W 080°05'0 0.0
2018-May-01 23:59N 26°07' W 080°05'0 0.0
2018-May-01 23:29N 26°07' W 080°05'0 0.0
2018-May-01 22:59N 26°07' W 080°05'0 0.0
2018-May-01 22:29N 26°07' W 080°05'0 0.0
2018-May-01 21:59N 26°07' W 080°05'0 0.0
2018-May-01 21:29N 26°07' W 080°05'0 0.0
2018-May-01 20:59N 26°07' W 080°05'0 0.0
2018-May-01 20:29N 26°07' W 080°05'0 0.0
2018-May-01 19:59N 26°07' W 080°05'0 0.0
2018-May-01 19:29N 26°07' W 080°05'0 0.0
2018-May-01 18:59N 26°07' W 080°05'0 0.0
2018-May-01 18:29N 26°07' W 080°05'0 0.0
2018-May-01 17:59N 26°07' W 080°05'0 0.0
2018-May-01 17:29N 26°07' W 080°05'0 0.0
2018-May-01 16:59N 26°07' W 080°05'0 0.0
2018-May-01 16:29N 26°07' W 080°05'0 0.1
2018-May-01 15:59N 26°07' W 080°05'0 0.0
2018-May-01 15:29N 26°07' W 080°05'0 0.0
2018-May-01 14:59N 26°07' W 080°05'0 0.0
2018-May-01 14:29N 26°07' W 080°05'0 0.0
2018-May-01 13:59N 26°07' W 080°05'0 0.0
2018-May-01 13:29N 26°07' W 080°05'0 0.0
2018-May-01 12:56N 26°07' W 080°05'0 0.0
2018-May-01 12:29N 26°07' W 080°05'0 0.0
2018-May-01 11:59N 26°07' W 080°05'0 0.0
2018-May-01 11:26N 26°07' W 080°05'0 0.0
2018-May-01 10:59N 26°07' W 080°05'0 0.1
2018-May-01 10:29N 26°07' W 080°05'0 0.1
2018-May-01 09:59N 26°07' W 080°05'0 0.0
2018-May-01 09:29N 26°07' W 080°05'0 0.1
2018-May-01 08:59N 26°07' W 080°05'0 0.1
2018-May-01 08:29N 26°07' W 080°05'0 0.0
2018-May-01 07:59N 26°07' W 080°05'0 0.0
2018-May-01 07:29N 26°07' W 080°05'0 0.0
2018-May-01 06:59N 26°07' W 080°05'0 0.0
2018-May-01 06:29N 26°07' W 080°05'0 0.0
2018-May-01 05:59N 26°07' W 080°05'0 0.0
2018-May-01 05:29N 26°07' W 080°05'0 0.0
2018-May-01 04:59N 26°07' W 080°05'0 0.0
2018-May-01 04:29N 26°07' W 080°05'0 0.0
2018-May-01 03:59N 26°07' W 080°05'0 0.0
2018-May-01 03:29N 26°07' W 080°05'0 0.0
2018-May-01 02:59N 26°07' W 080°05'0 0.0
2018-May-01 02:29N 26°07' W 080°05'0 0.0
2018-May-01 01:59N 26°07' W 080°05'0 0.0
2018-May-01 01:29N 26°07' W 080°05'0 0.0
2018-May-01 00:56N 26°07' W 080°05'0 0.0
2018-May-01 00:29N 26°07' W 080°05'0 0.0
2018-Apr-30 23:59N 26°07' W 080°05'0 0.0
2018-Apr-30 23:30N 26°07' W 080°05'0 0.0
2018-Apr-30 23:01N 26°07' W 080°05'0 0.0
2018-Apr-30 22:30N 26°07' W 080°05'0 0.0
2018-Apr-30 22:00N 26°07' W 080°05'0 0.0
2018-Apr-30 21:30N 26°07' W 080°05'0 0.0
2018-Apr-30 21:00N 26°07' W 080°05'0 0.0
2018-Apr-30 20:30N 26°07' W 080°05'0 0.0
2018-Apr-30 20:00N 26°07' W 080°05'0 0.1
2018-Apr-30 19:31N 26°07' W 080°05'0 0.0
2018-Apr-30 19:00N 26°07' W 080°05'0 0.0
2018-Apr-30 18:30N 26°07' W 080°05'0 0.0
2018-Apr-30 18:00N 26°07' W 080°05'0 0.0
2018-Apr-30 17:30N 26°07' W 080°05'0 0.0
2018-Apr-30 17:01N 26°07' W 080°05'0 0.0
2018-Apr-30 16:31N 26°07' W 080°05'0 0.0
2018-Apr-30 16:01N 26°07' W 080°05'0 0.0
2018-Apr-30 15:31N 26°07' W 080°05'0 0.2
2018-Apr-30 15:00N 26°07' W 080°05'2 4.0
2018-Apr-30 14:31N 26°06' W 080°06'2 3.1
2018-Apr-30 13:58N 26°04' W 080°07'0 0.0
2018-Apr-30 13:28N 26°04' W 080°07'0 0.0
2018-Apr-30 12:58N 26°04' W 080°07'0 0.0
2018-Apr-30 12:28N 26°04' W 080°07'0 0.0
2018-Apr-30 11:58N 26°04' W 080°07'0 0.0
2018-Apr-30 11:28N 26°04' W 080°07'0 0.0
2018-Apr-30 10:58N 26°04' W 080°07'0 0.0
2018-Apr-30 10:28N 26°04' W 080°07'0 0.0
2018-Apr-30 09:58N 26°04' W 080°07'0 0.0
2018-Apr-30 09:28N 26°04' W 080°07'0 0.0
2018-Apr-30 08:58N 26°04' W 080°07'0 0.0
2018-Apr-30 08:28N 26°04' W 080°07'0 0.0
2018-Apr-30 07:58N 26°04' W 080°07'0 0.0
2018-Apr-30 07:28N 26°04' W 080°07'0 0.0
2018-Apr-30 06:58N 26°04' W 080°07'1 1.1
2018-Apr-30 06:30N 26°05' W 080°07'3 7.0
2018-Apr-30 06:00N 26°06' W 080°03'510.1
2018-Apr-30 05:30N 26°03' W 079°59'714.2
2018-Apr-30 05:00N 25°59' W 079°52'815.0
2018-Apr-30 04:29N 25°53' W 079°46'1114.2
2018-Apr-30 03:43N 25°43' W 079°41'615.5
2018-Apr-30 03:21N 25°37' W 079°41'  

Dump ship's entire track history